sensor_id;sensor_type;location;lat;lon;timestamp;pressure;altitude;pressure_sealevel;temperature;humidity
60015;BME280;45867;52.480;6.056;2022-11-20T00:00:11;101432.09;;;-5.85;100.00
60015;BME280;45867;52.480;6.056;2022-11-20T00:02:42;101442.38;;;-5.75;100.00
60015;BME280;45867;52.480;6.056;2022-11-20T00:05:08;101438.59;;;-5.81;100.00
60015;BME280;45867;52.480;6.056;2022-11-20T00:07:36;101424.56;;;-5.96;100.00
60015;BME280;45867;52.480;6.056;2022-11-20T00:10:05;101420.78;;;-6.02;100.00
60015;BME280;45867;52.480;6.056;2022-11-20T00:12:31;101415.38;;;-6.09;100.00
60015;BME280;45867;52.480;6.056;2022-11-20T00:14:56;101412.91;;;-6.00;100.00
60015;BME280;45867;52.480;6.056;2022-11-20T00:17:22;101413.50;;;-5.89;100.00
60015;BME280;45867;52.480;6.056;2022-11-20T00:19:48;101400.25;;;-5.94;100.00
60015;BME280;45867;52.480;6.056;2022-11-20T00:22:14;101411.97;;;-5.99;100.00
60015;BME280;45867;52.480;6.056;2022-11-20T00:24:39;101410.75;;;-6.05;100.00
60015;BME280;45867;52.480;6.056;2022-11-20T00:27:05;101405.91;;;-6.08;100.00
60015;BME280;45867;52.480;6.056;2022-11-20T00:29:30;101398.97;;;-5.90;100.00
60015;BME280;45867;52.480;6.056;2022-11-20T00:31:56;101400.53;;;-5.79;100.00
60015;BME280;45867;52.480;6.056;2022-11-20T00:34:21;101378.84;;;-5.86;100.00
60015;BME280;45867;52.480;6.056;2022-11-20T00:36:47;101393.81;;;-5.90;100.00
60015;BME280;45867;52.480;6.056;2022-11-20T00:39:13;101382.94;;;-6.11;100.00
60015;BME280;45867;52.480;6.056;2022-11-20T00:41:38;101395.03;;;-6.12;100.00
60015;BME280;45867;52.480;6.056;2022-11-20T00:44:04;101400.63;;;-6.16;100.00
60015;BME280;45867;52.480;6.056;2022-11-20T00:46:29;101405.63;;;-6.15;100.00
60015;BME280;45867;52.480;6.056;2022-11-20T00:48:55;101407.41;;;-6.15;100.00
60015;BME280;45867;52.480;6.056;2022-11-20T00:51:23;101406.84;;;-6.09;100.00
60015;BME280;45867;52.480;6.056;2022-11-20T00:53:51;101406.69;;;-6.08;100.00
60015;BME280;45867;52.480;6.056;2022-11-20T00:56:18;101402.63;;;-6.10;100.00
60015;BME280;45867;52.480;6.056;2022-11-20T00:58:47;101399.16;;;-6.19;100.00
60015;BME280;45867;52.480;6.056;2022-11-20T01:01:21;101400.09;;;-6.20;100.00
60015;BME280;45867;52.480;6.056;2022-11-20T01:03:50;101411.06;;;-6.18;100.00
60015;BME280;45867;52.480;6.056;2022-11-20T01:06:25;101396.28;;;-6.16;100.00
60015;BME280;45867;52.480;6.056;2022-11-20T01:08:54;101404.16;;;-6.17;100.00
60015;BME280;45867;52.480;6.056;2022-11-20T01:11:22;101408.09;;;-6.13;100.00
60015;BME280;45867;52.480;6.056;2022-11-20T01:13:51;101405.31;;;-6.02;100.00
60015;BME280;45867;52.480;6.056;2022-11-20T01:16:30;101413.16;;;-5.94;100.00
60015;BME280;45867;52.480;6.056;2022-11-20T01:18:58;101405.75;;;-5.89;100.00
60015;BME280;45867;52.480;6.056;2022-11-20T01:21:30;101410.47;;;-5.84;100.00
60015;BME280;45867;52.480;6.056;2022-11-20T01:23:56;101408.81;;;-5.75;100.00
60015;BME280;45867;52.480;6.056;2022-11-20T01:26:25;101407.72;;;-5.73;100.00
60015;BME280;45867;52.480;6.056;2022-11-20T01:28:55;101402.59;;;-5.83;100.00
60015;BME280;45867;52.480;6.056;2022-11-20T01:31:25;101400.25;;;-5.94;100.00
60015;BME280;45867;52.480;6.056;2022-11-20T01:33:57;101400.56;;;-6.07;100.00
60015;BME280;45867;52.480;6.056;2022-11-20T01:36:26;101393.25;;;-6.11;100.00
60015;BME280;45867;52.480;6.056;2022-11-20T01:38:53;101385.91;;;-6.06;100.00
60015;BME280;45867;52.480;6.056;2022-11-20T01:41:19;101383.03;;;-6.03;100.00
60015;BME280;45867;52.480;6.056;2022-11-20T01:44:05;101369.47;;;-6.05;100.00
60015;BME280;45867;52.480;6.056;2022-11-20T01:46:32;101374.09;;;-6.09;100.00
60015;BME280;45867;52.480;6.056;2022-11-20T01:49:16;101369.94;;;-6.19;100.00
60015;BME280;45867;52.480;6.056;2022-11-20T01:51:49;101366.84;;;-6.23;100.00
60015;BME280;45867;52.480;6.056;2022-11-20T01:54:18;101367.94;;;-6.26;100.00
60015;BME280;45867;52.480;6.056;2022-11-20T01:56:46;101365.81;;;-6.30;100.00
60015;BME280;45867;52.480;6.056;2022-11-20T01:59:15;101377.78;;;-6.11;100.00
60015;BME280;45867;52.480;6.056;2022-11-20T02:01:42;101366.91;;;-6.05;100.00
60015;BME280;45867;52.480;6.056;2022-11-20T02:04:09;101366.03;;;-5.96;100.00
60015;BME280;45867;52.480;6.056;2022-11-20T02:06:41;101370.28;;;-5.87;100.00
60015;BME280;45867;52.480;6.056;2022-11-20T02:09:09;101364.25;;;-5.95;100.00
60015;BME280;45867;52.480;6.056;2022-11-20T02:11:38;101368.81;;;-6.07;100.00
60015;BME280;45867;52.480;6.056;2022-11-20T02:14:03;101343.78;;;-6.24;100.00
60015;BME280;45867;52.480;6.056;2022-11-20T02:16:43;101340.28;;;-6.33;100.00
60015;BME280;45867;52.480;6.056;2022-11-20T02:19:20;101350.03;;;-6.27;100.00
60015;BME280;45867;52.480;6.056;2022-11-20T02:22:10;101345.81;;;-6.28;100.00
60015;BME280;45867;52.480;6.056;2022-11-20T02:24:39;101331.59;;;-6.32;100.00
60015;BME280;45867;52.480;6.056;2022-11-20T02:27:09;101344.44;;;-6.22;100.00
60015;BME280;45867;52.480;6.056;2022-11-20T02:29:42;101338.47;;;-6.23;100.00
60015;BME280;45867;52.480;6.056;2022-11-20T02:32:27;101340.25;;;-6.23;100.00
60015;BME280;45867;52.480;6.056;2022-11-20T02:34:53;101335.59;;;-6.20;100.00
60015;BME280;45867;52.480;6.056;2022-11-20T02:37:19;101336.13;;;-6.16;100.00
60015;BME280;45867;52.480;6.056;2022-11-20T02:39:47;101338.38;;;-6.31;100.00
60015;BME280;45867;52.480;6.056;2022-11-20T02:42:14;101340.44;;;-6.35;100.00
60015;BME280;45867;52.480;6.056;2022-11-20T02:44:39;101349.09;;;-6.36;100.00
60015;BME280;45867;52.480;6.056;2022-11-20T02:47:05;101354.34;;;-6.28;100.00
60015;BME280;45867;52.480;6.056;2022-11-20T02:49:30;101344.44;;;-6.22;100.00
60015;BME280;45867;52.480;6.056;2022-11-20T02:51:56;101335.66;;;-6.30;100.00
60015;BME280;45867;52.480;6.056;2022-11-20T02:54:21;101332.88;;;-6.46;100.00
60015;BME280;45867;52.480;6.056;2022-11-20T02:57:06;101344.38;;;-6.40;100.00
60015;BME280;45867;52.480;6.056;2022-11-20T02:59:31;101332.88;;;-6.46;100.00
60015;BME280;45867;52.480;6.056;2022-11-20T03:01:56;101336.28;;;-6.18;100.00
60015;BME280;45867;52.480;6.056;2022-11-20T03:04:22;101347.69;;;-6.20;100.00
60015;BME280;45867;52.480;6.056;2022-11-20T03:06:47;101341.53;;;-6.37;100.00
60015;BME280;45867;52.480;6.056;2022-11-20T03:09:13;101333.69;;;-6.45;100.00
60015;BME280;45867;52.480;6.056;2022-11-20T03:11:38;101324.19;;;-6.45;100.00
60015;BME280;45867;52.480;6.056;2022-11-20T03:14:04;101324.78;;;-6.33;100.00
60015;BME280;45867;52.480;6.056;2022-11-20T03:16:31;101338.13;;;-6.38;100.00
60015;BME280;45867;52.480;6.056;2022-11-20T03:18:56;101339.25;;;-6.50;100.00
60015;BME280;45867;52.480;6.056;2022-11-20T03:21:22;101331.41;;;-6.58;100.00
60015;BME280;45867;52.480;6.056;2022-11-20T03:23:47;101318.03;;;-6.72;100.00
60015;BME280;45867;52.480;6.056;2022-11-20T03:26:18;101316.28;;;-6.71;100.00
60015;BME280;45867;52.480;6.056;2022-11-20T03:28:51;101322.91;;;-6.68;100.00
60015;BME280;45867;52.480;6.056;2022-11-20T03:31:19;101316.94;;;-6.69;100.00
60015;BME280;45867;52.480;6.056;2022-11-20T03:33:45;101306.63;;;-6.69;100.00
60015;BME280;45867;52.480;6.056;2022-11-20T03:36:12;101303.66;;;-6.37;100.00
60015;BME280;45867;52.480;6.056;2022-11-20T03:38:38;101303.81;;;-6.38;100.00
60015;BME280;45867;52.480;6.056;2022-11-20T03:41:08;101311.44;;;-6.46;100.00
60015;BME280;45867;52.480;6.056;2022-11-20T03:43:34;101307.47;;;-6.41;100.00
60015;BME280;45867;52.480;6.056;2022-11-20T03:46:00;101294.94;;;-6.36;100.00
60015;BME280;45867;52.480;6.056;2022-11-20T03:48:25;101290.91;;;-6.38;100.00
60015;BME280;45867;52.480;6.056;2022-11-20T03:50:52;101287.38;;;-6.37;100.00
60015;BME280;45867;52.480;6.056;2022-11-20T03:53:19;101281.34;;;-6.28;100.00
60015;BME280;45867;52.480;6.056;2022-11-20T03:55:49;101279.13;;;-6.23;100.00
60015;BME280;45867;52.480;6.056;2022-11-20T03:58:20;101288.66;;;-6.23;100.00
60015;BME280;45867;52.480;6.056;2022-11-20T04:00:45;101289.47;;;-6.23;100.00
60015;BME280;45867;52.480;6.056;2022-11-20T04:03:11;101283.88;;;-6.18;100.00
60015;BME280;45867;52.480;6.056;2022-11-20T04:05:36;101294.41;;;-6.12;100.00
60015;BME280;45867;52.480;6.056;2022-11-20T04:08:01;101299.53;;;-6.02;100.00
60015;BME280;45867;52.480;6.056;2022-11-20T04:10:27;101293.56;;;-6.03;100.00
60015;BME280;45867;52.480;6.056;2022-11-20T04:12:52;101283.88;;;-6.18;100.00
60015;BME280;45867;52.480;6.056;2022-11-20T04:15:17;101274.78;;;-6.22;100.00
60015;BME280;45867;52.480;6.056;2022-11-20T04:17:43;101281.22;;;-6.27;100.00
60015;BME280;45867;52.480;6.056;2022-11-20T04:20:08;101273.56;;;-6.46;100.00
60015;BME280;45867;52.480;6.056;2022-11-20T04:22:34;101282.13;;;-6.45;100.00
60015;BME280;45867;52.480;6.056;2022-11-20T04:24:59;101282.78;;;-6.43;100.00
60015;BME280;45867;52.480;6.056;2022-11-20T04:27:24;101285.75;;;-6.38;100.00
60015;BME280;45867;52.480;6.056;2022-11-20T04:29:50;101261.50;;;-6.45;100.00
60015;BME280;45867;52.480;6.056;2022-11-20T04:32:15;101264.00;;;-6.36;100.00
60015;BME280;45867;52.480;6.056;2022-11-20T04:34:40;101266.31;;;-6.33;100.00
60015;BME280;45867;52.480;6.056;2022-11-20T04:37:06;101271.41;;;-6.23;100.00
60015;BME280;45867;52.480;6.056;2022-11-20T04:39:31;101255.47;;;-6.36;100.00
60015;BME280;45867;52.480;6.056;2022-11-20T04:41:56;101266.84;;;-6.29;100.00
60015;BME280;45867;52.480;6.056;2022-11-20T04:44:40;101268.44;;;-6.28;100.00
60015;BME280;45867;52.480;6.056;2022-11-20T04:47:06;101268.66;;;-6.39;100.00
60015;BME280;45867;52.480;6.056;2022-11-20T04:49:31;101267.66;;;-6.56;100.00
60015;BME280;45867;52.480;6.056;2022-11-20T04:51:57;101270.41;;;-6.67;100.00
60015;BME280;45867;52.480;6.056;2022-11-20T04:54:23;101266.09;;;-6.77;100.00
60015;BME280;45867;52.480;6.056;2022-11-20T04:56:55;101245.13;;;-6.82;100.00
60015;BME280;45867;52.480;6.056;2022-11-20T04:59:20;101242.78;;;-6.85;100.00
60015;BME280;45867;52.480;6.056;2022-11-20T05:01:46;101244.28;;;-6.82;100.00
60015;BME280;45867;52.480;6.056;2022-11-20T05:04:11;101243.34;;;-6.81;100.00
60015;BME280;45867;52.480;6.056;2022-11-20T05:06:37;101239.22;;;-6.74;100.00
60015;BME280;45867;52.480;6.056;2022-11-20T05:09:02;101242.84;;;-6.57;100.00
60015;BME280;45867;52.480;6.056;2022-11-20T05:11:28;101249.59;;;-6.56;100.00
60015;BME280;45867;52.480;6.056;2022-11-20T05:13:58;101249.09;;;-6.60;100.00
60015;BME280;45867;52.480;6.056;2022-11-20T05:16:24;101254.53;;;-6.63;100.00
60015;BME280;45867;52.480;6.056;2022-11-20T05:18:51;101245.56;;;-6.68;100.00
60015;BME280;45867;52.480;6.056;2022-11-20T05:21:17;101251.50;;;-6.58;100.00
60015;BME280;45867;52.480;6.056;2022-11-20T05:23:43;101250.84;;;-6.60;100.00
60015;BME280;45867;52.480;6.056;2022-11-20T05:26:17;101248.63;;;-6.55;100.00
60015;BME280;45867;52.480;6.056;2022-11-20T05:28:43;101245.06;;;-6.44;100.00
60015;BME280;45867;52.480;6.056;2022-11-20T05:31:14;101254.44;;;-6.43;100.00
60015;BME280;45867;52.480;6.056;2022-11-20T05:33:40;101253.88;;;-6.47;100.00
60015;BME280;45867;52.480;6.056;2022-11-20T05:36:06;101254.72;;;-6.46;100.00
60015;BME280;45867;52.480;6.056;2022-11-20T05:38:32;101257.31;;;-6.46;100.00
60015;BME280;45867;52.480;6.056;2022-11-20T05:41:05;101254.47;;;-6.53;100.00
60015;BME280;45867;52.480;6.056;2022-11-20T05:43:34;101246.91;;;-6.55;100.00
60015;BME280;45867;52.480;6.056;2022-11-20T05:46:00;101248.13;;;-6.59;100.00
60015;BME280;45867;52.480;6.056;2022-11-20T05:48:26;101244.16;;;-6.53;100.00
60015;BME280;45867;52.480;6.056;2022-11-20T05:50:51;101236.31;;;-6.61;100.00
60015;BME280;45867;52.480;6.056;2022-11-20T05:53:16;101215.78;;;-6.71;100.00
60015;BME280;45867;52.480;6.056;2022-11-20T05:55:42;101221.34;;;-6.76;100.00
60015;BME280;45867;52.480;6.056;2022-11-20T05:58:07;101224.44;;;-6.72;100.00
60015;BME280;45867;52.480;6.056;2022-11-20T06:00:33;101233.94;;;-6.73;100.00
60015;BME280;45867;52.480;6.056;2022-11-20T06:02:58;101241.44;;;-6.79;100.00
60015;BME280;45867;52.480;6.056;2022-11-20T06:05:23;101232.38;;;-6.83;100.00
60015;BME280;45867;52.480;6.056;2022-11-20T06:07:49;101231.28;;;-6.81;100.00
60015;BME280;45867;52.480;6.056;2022-11-20T06:10:14;101221.94;;;-6.92;100.00
60015;BME280;45867;52.480;6.056;2022-11-20T06:12:39;101226.81;;;-6.88;100.00
60015;BME280;45867;52.480;6.056;2022-11-20T06:15:05;101227.41;;;-6.95;100.00
60015;BME280;45867;52.480;6.056;2022-11-20T06:17:31;101218.06;;;-7.05;100.00
60015;BME280;45867;52.480;6.056;2022-11-20T06:19:56;101236.09;;;-6.96;100.00
60015;BME280;45867;52.480;6.056;2022-11-20T06:22:22;101237.81;;;-6.96;100.00
60015;BME280;45867;52.480;6.056;2022-11-20T06:24:50;101228.94;;;-7.11;100.00
60015;BME280;45867;52.480;6.056;2022-11-20T06:27:15;101236.00;;;-7.13;100.00
60015;BME280;45867;52.480;6.056;2022-11-20T06:29:41;101236.53;;;-7.10;100.00
60015;BME280;45867;52.480;6.056;2022-11-20T06:32:06;101232.84;;;-6.98;100.00
60015;BME280;45867;52.480;6.056;2022-11-20T06:34:32;101228.31;;;-6.86;100.00
60015;BME280;45867;52.480;6.056;2022-11-20T06:36:57;101217.22;;;-6.96;100.00
60015;BME280;45867;52.480;6.056;2022-11-20T06:39:22;101213.88;;;-7.06;100.00
60015;BME280;45867;52.480;6.056;2022-11-20T06:41:51;101222.38;;;-6.96;100.00
60015;BME280;45867;52.480;6.056;2022-11-20T06:44:16;101217.91;;;-6.94;100.00
60015;BME280;45867;52.480;6.056;2022-11-20T06:46:41;101235.34;;;-6.88;100.00
60015;BME280;45867;52.480;6.056;2022-11-20T06:49:07;101222.94;;;-7.02;100.00
60015;BME280;45867;52.480;6.056;2022-11-20T06:51:32;101242.34;;;-6.98;100.00
60015;BME280;45867;52.480;6.056;2022-11-20T06:53:57;101231.38;;;-7.10;100.00
60015;BME280;45867;52.480;6.056;2022-11-20T06:56:24;101225.69;;;-7.13;100.00
60015;BME280;45867;52.480;6.056;2022-11-20T06:58:49;101240.69;;;-6.99;100.00
60015;BME280;45867;52.480;6.056;2022-11-20T07:01:15;101236.97;;;-7.15;100.00
60015;BME280;45867;52.480;6.056;2022-11-20T07:03:43;101230.84;;;-7.23;100.00
60015;BME280;45867;52.480;6.056;2022-11-20T07:06:08;101241.28;;;-7.15;100.00
60015;BME280;45867;52.480;6.056;2022-11-20T07:08:34;101238.16;;;-7.09;100.00
60015;BME280;45867;52.480;6.056;2022-11-20T07:11:02;101251.53;;;-6.96;100.00
60015;BME280;45867;52.480;6.056;2022-11-20T07:13:28;101251.28;;;-7.02;100.00
60015;BME280;45867;52.480;6.056;2022-11-20T07:16:01;101248.28;;;-6.98;100.00
60015;BME280;45867;52.480;6.056;2022-11-20T07:18:27;101230.38;;;-6.99;100.00
60015;BME280;45867;52.480;6.056;2022-11-20T07:20:53;101240.91;;;-6.83;100.00
60015;BME280;45867;52.480;6.056;2022-11-20T07:23:18;101241.28;;;-6.78;100.00
60015;BME280;45867;52.480;6.056;2022-11-20T07:25:43;101231.69;;;-6.85;100.00
60015;BME280;45867;52.480;6.056;2022-11-20T07:28:09;101218.16;;;-6.87;100.00
60015;BME280;45867;52.480;6.056;2022-11-20T07:30:35;101233.44;;;-6.76;100.00
60015;BME280;45867;52.480;6.056;2022-11-20T07:33:01;101222.56;;;-6.80;100.00
60015;BME280;45867;52.480;6.056;2022-11-20T07:35:26;101223.94;;;-6.76;100.00
60015;BME280;45867;52.480;6.056;2022-11-20T07:37:52;101235.81;;;-6.65;100.00
60015;BME280;45867;52.480;6.056;2022-11-20T07:40:18;101238.56;;;-6.49;100.00
60015;BME280;45867;52.480;6.056;2022-11-20T07:42:49;101213.31;;;-6.45;100.00
60015;BME280;45867;52.480;6.056;2022-11-20T07:45:21;101213.69;;;-6.40;100.00
60015;BME280;45867;52.480;6.056;2022-11-20T07:47:47;101212.28;;;-6.34;100.00
60015;BME280;45867;52.480;6.056;2022-11-20T07:50:13;101210.53;;;-6.34;100.00
60015;BME280;45867;52.480;6.056;2022-11-20T07:52:39;101215.09;;;-6.28;100.00
60015;BME280;45867;52.480;6.056;2022-11-20T07:55:06;101219.38;;;-6.18;100.00
60015;BME280;45867;52.480;6.056;2022-11-20T07:57:32;101217.19;;;-6.13;100.00
60015;BME280;45867;52.480;6.056;2022-11-20T07:59:58;101215.09;;;-5.92;100.00
60015;BME280;45867;52.480;6.056;2022-11-20T08:02:23;101205.78;;;-5.85;100.00
60015;BME280;45867;52.480;6.056;2022-11-20T08:04:48;101211.00;;;-5.76;100.00
60015;BME280;45867;52.480;6.056;2022-11-20T08:07:14;101192.00;;;-5.75;100.00
60015;BME280;45867;52.480;6.056;2022-11-20T08:09:39;101198.81;;;-5.66;100.00
60015;BME280;45867;52.480;6.056;2022-11-20T08:12:05;101207.13;;;-5.54;100.00
60015;BME280;45867;52.480;6.056;2022-11-20T08:14:49;101199.75;;;-5.49;100.00
60015;BME280;45867;52.480;6.056;2022-11-20T08:17:14;101208.25;;;-5.31;100.00
60015;BME280;45867;52.480;6.056;2022-11-20T08:19:40;101203.13;;;-5.23;100.00
60015;BME280;45867;52.480;6.056;2022-11-20T08:22:05;101186.06;;;-5.16;100.00
60015;BME280;45867;52.480;6.056;2022-11-20T08:24:31;101195.34;;;-4.97;100.00
60015;BME280;45867;52.480;6.056;2022-11-20T08:27:00;101194.44;;;-4.87;100.00
60015;BME280;45867;52.480;6.056;2022-11-20T08:29:28;101191.88;;;-4.79;100.00
60015;BME280;45867;52.480;6.056;2022-11-20T08:31:53;101185.94;;;-4.72;100.00
60015;BME280;45867;52.480;6.056;2022-11-20T08:34:21;101179.00;;;-4.63;100.00
60015;BME280;45867;52.480;6.056;2022-11-20T08:36:47;101161.03;;;-4.64;100.00
60015;BME280;45867;52.480;6.056;2022-11-20T08:39:13;101175.31;;;-4.44;100.00
60015;BME280;45867;52.480;6.056;2022-11-20T08:41:38;101163.69;;;-4.24;100.00
60015;BME280;45867;52.480;6.056;2022-11-20T08:44:05;101177.47;;;-4.07;100.00
60015;BME280;45867;52.480;6.056;2022-11-20T08:46:37;101167.94;;;-3.98;100.00
60015;BME280;45867;52.480;6.056;2022-11-20T08:49:04;101170.34;;;-3.88;100.00
60015;BME280;45867;52.480;6.056;2022-11-20T08:51:29;101165.03;;;-3.87;100.00
60015;BME280;45867;52.480;6.056;2022-11-20T08:53:55;101148.97;;;-3.90;100.00
60015;BME280;45867;52.480;6.056;2022-11-20T08:56:20;101180.53;;;-3.70;100.00
60015;BME280;45867;52.480;6.056;2022-11-20T08:58:46;101174.69;;;-3.64;100.00
60015;BME280;45867;52.480;6.056;2022-11-20T09:01:19;101165.13;;;-3.55;100.00
60015;BME280;45867;52.480;6.056;2022-11-20T09:03:45;101152.69;;;-3.52;100.00
60015;BME280;45867;52.480;6.056;2022-11-20T09:06:11;101166.25;;;-3.42;100.00
60015;BME280;45867;52.480;6.056;2022-11-20T09:08:39;101159.25;;;-3.33;100.00
60015;BME280;45867;52.480;6.056;2022-11-20T09:11:08;101156.00;;;-3.27;100.00
60015;BME280;45867;52.480;6.056;2022-11-20T09:13:35;101157.28;;;-3.23;100.00
60015;BME280;45867;52.480;6.056;2022-11-20T09:16:08;101159.19;;;-3.17;100.00
60015;BME280;45867;52.480;6.056;2022-11-20T09:18:35;101152.88;;;-3.14;100.00
60015;BME280;45867;52.480;6.056;2022-11-20T09:21:13;101155.44;;;-3.06;100.00
60015;BME280;45867;52.480;6.056;2022-11-20T09:23:39;101153.44;;;-2.96;100.00
60015;BME280;45867;52.480;6.056;2022-11-20T09:26:15;101139.69;;;-2.96;100.00
60015;BME280;45867;52.480;6.056;2022-11-20T09:28:41;101147.22;;;-2.78;100.00
60015;BME280;45867;52.480;6.056;2022-11-20T09:31:17;101142.16;;;-2.72;100.00
60015;BME280;45867;52.480;6.056;2022-11-20T09:33:44;101150.50;;;-2.53;100.00
60015;BME280;45867;52.480;6.056;2022-11-20T09:36:13;101138.13;;;-2.51;100.00
60015;BME280;45867;52.480;6.056;2022-11-20T09:38:38;101143.09;;;-2.41;100.00
60015;BME280;45867;52.480;6.056;2022-11-20T09:41:06;101128.81;;;-2.37;100.00
60015;BME280;45867;52.480;6.056;2022-11-20T09:43:46;101137.28;;;-2.20;100.00
60015;BME280;45867;52.480;6.056;2022-11-20T09:46:24;101142.28;;;-2.19;100.00
60015;BME280;45867;52.480;6.056;2022-11-20T09:51:56;101117.56;;;-1.92;100.00
60015;BME280;45867;52.480;6.056;2022-11-20T09:54:29;101117.41;;;-1.75;100.00
60015;BME280;45867;52.480;6.056;2022-11-20T09:57:00;101120.03;;;-1.61;100.00
60015;BME280;45867;52.480;6.056;2022-11-20T09:59:44;101112.75;;;-1.50;100.00
60015;BME280;45867;52.480;6.056;2022-11-20T10:04:53;101108.06;;;-1.10;100.00
60015;BME280;45867;52.480;6.056;2022-11-20T10:07:27;101102.81;;;-0.96;100.00
60015;BME280;45867;52.480;6.056;2022-11-20T10:09:55;101108.06;;;-0.74;100.00
60015;BME280;45867;52.480;6.056;2022-11-20T10:12:53;101111.44;;;-0.59;100.00
60015;BME280;45867;52.480;6.056;2022-11-20T10:24:57;101102.50;;;-0.28;100.00
60015;BME280;45867;52.480;6.056;2022-11-20T10:30:15;101092.19;;;-0.15;100.00
60015;BME280;45867;52.480;6.056;2022-11-20T10:32:43;101091.88;;;-0.05;100.00
60015;BME280;45867;52.480;6.056;2022-11-20T10:37:42;101083.63;;;-0.09;100.00
60015;BME280;45867;52.480;6.056;2022-11-20T10:40:35;101081.50;;;0.02;100.00
60015;BME280;45867;52.480;6.056;2022-11-20T10:43:12;101062.50;;;0.08;100.00
60015;BME280;45867;52.480;6.056;2022-11-20T10:45:53;101075.75;;;0.13;100.00
60015;BME280;45867;52.480;6.056;2022-11-20T10:48:23;101068.22;;;0.25;100.00
60015;BME280;45867;52.480;6.056;2022-11-20T10:51:15;101077.97;;;0.44;100.00
60015;BME280;45867;52.480;6.056;2022-11-20T10:56:38;101068.06;;;0.74;100.00
60015;BME280;45867;52.480;6.056;2022-11-20T11:01:41;101074.97;;;1.02;100.00
60015;BME280;45867;52.480;6.056;2022-11-20T11:04:33;101070.56;;;1.02;100.00
60015;BME280;45867;52.480;6.056;2022-11-20T11:07:22;101080.84;;;1.30;100.00
60015;BME280;45867;52.480;6.056;2022-11-20T11:09:53;101067.00;;;1.23;100.00
60015;BME280;45867;52.480;6.056;2022-11-20T11:12:20;101064.03;;;1.60;100.00
60015;BME280;45867;52.480;6.056;2022-11-20T11:14:55;101061.81;;;1.83;100.00
60015;BME280;45867;52.480;6.056;2022-11-20T11:22:29;101039.69;;;1.79;100.00
60015;BME280;45867;52.480;6.056;2022-11-20T11:24:55;101043.53;;;1.83;100.00
60015;BME280;45867;52.480;6.056;2022-11-20T11:27:20;101027.84;;;1.96;100.00
60015;BME280;45867;52.480;6.056;2022-11-20T11:29:46;101027.84;;;1.96;100.00
60015;BME280;45867;52.480;6.056;2022-11-20T11:34:42;101030.81;;;2.07;100.00
60015;BME280;45867;52.480;6.056;2022-11-20T11:37:18;101014.75;;;2.03;100.00
60015;BME280;45867;52.480;6.056;2022-11-20T11:39:46;101013.16;;;2.02;100.00
60015;BME280;45867;52.480;6.056;2022-11-20T11:42:17;100992.03;;;2.04;100.00
60015;BME280;45867;52.480;6.056;2022-11-20T11:44:47;100996.84;;;2.07;100.00
60015;BME280;45867;52.480;6.056;2022-11-20T11:47:35;100998.03;;;2.04;100.00
60015;BME280;45867;52.480;6.056;2022-11-20T11:55:09;101001.94;;;1.75;100.00
60015;BME280;45867;52.480;6.056;2022-11-20T11:57:55;100996.09;;;1.80;100.00
60015;BME280;45867;52.480;6.056;2022-11-20T12:00:24;100980.03;;;1.63;100.00
60015;BME280;45867;52.480;6.056;2022-11-20T12:03:14;100996.91;;;1.60;100.00
60015;BME280;45867;52.480;6.056;2022-11-20T12:05:55;100996.31;;;1.65;100.00
60015;BME280;45867;52.480;6.056;2022-11-20T12:08:49;100994.53;;;1.59;100.00
60015;BME280;45867;52.480;6.056;2022-11-20T12:11:30;100983.66;;;1.55;100.00
60015;BME280;45867;52.480;6.056;2022-11-20T12:14:14;100982.22;;;1.66;100.00
60015;BME280;45867;52.480;6.056;2022-11-20T12:16:42;100975.25;;;1.53;100.00
60015;BME280;45867;52.480;6.056;2022-11-20T12:19:10;100973.22;;;1.48;100.00
60015;BME280;45867;52.480;6.056;2022-11-20T12:21:46;100966.16;;;1.69;100.00
60015;BME280;45867;52.480;6.056;2022-11-20T12:29:24;100951.66;;;1.86;100.00
60015;BME280;45867;52.480;6.056;2022-11-20T12:32:14;100940.00;;;1.82;100.00
60015;BME280;45867;52.480;6.056;2022-11-20T12:38:20;100923.91;;;1.85;100.00
60015;BME280;45867;52.480;6.056;2022-11-20T12:43:51;100919.91;;;1.83;100.00
60015;BME280;45867;52.480;6.056;2022-11-20T12:46:48;100916.13;;;1.72;100.00
60015;BME280;45867;52.480;6.056;2022-11-20T12:51:58;100903.88;;;1.66;100.00
60015;BME280;45867;52.480;6.056;2022-11-20T12:57:46;100892.06;;;1.57;100.00
60015;BME280;45867;52.480;6.056;2022-11-20T13:00:18;100890.44;;;1.62;100.00
60015;BME280;45867;52.480;6.056;2022-11-20T13:03:07;100883.19;;;1.58;100.00
60015;BME280;45867;52.480;6.056;2022-11-20T13:08:33;100885.41;;;1.61;100.00
60015;BME280;45867;52.480;6.056;2022-11-20T13:11:18;100891.25;;;1.56;100.00
60015;BME280;45867;52.480;6.056;2022-11-20T13:19:39;100865.31;;;1.54;100.00
60015;BME280;45867;52.480;6.056;2022-11-20T13:22:05;100862.31;;;1.58;100.00
60015;BME280;45867;52.480;6.056;2022-11-20T13:24:32;100856.06;;;1.65;100.00
60015;BME280;45867;52.480;6.056;2022-11-20T13:29:45;100846.41;;;1.66;100.00
60015;BME280;45867;52.480;6.056;2022-11-20T13:32:15;100838.78;;;1.58;100.00
60015;BME280;45867;52.480;6.056;2022-11-20T13:35:02;100845.19;;;1.75;100.00
60015;BME280;45867;52.480;6.056;2022-11-20T13:37:37;100831.53;;;1.66;100.00
60015;BME280;45867;52.480;6.056;2022-11-20T13:40:12;100829.94;;;1.65;100.00
60015;BME280;45867;52.480;6.056;2022-11-20T13:42:44;100827.69;;;1.69;100.00
60015;BME280;45867;52.480;6.056;2022-11-20T13:45:21;100817.44;;;1.74;100.00
60015;BME280;45867;52.480;6.056;2022-11-20T13:47:48;100820.09;;;1.67;100.00
60015;BME280;45867;52.480;6.056;2022-11-20T13:50:14;100810.84;;;1.65;100.00
60015;BME280;45867;52.480;6.056;2022-11-20T13:53:05;100809.66;;;1.61;100.00
60015;BME280;45867;52.480;6.056;2022-11-20T13:55:40;100784.59;;;1.46;100.00
60015;BME280;45867;52.480;6.056;2022-11-20T14:01:13;100806.84;;;1.62;100.00
60015;BME280;45867;52.480;6.056;2022-11-20T14:03:40;100797.78;;;1.65;100.00